Crown Jewel — WDH7406 — position and weather

sailwx.info

Track history (hours):
 
Tides and Currents Weather Stations Pressure Air Temp Water Temp Dewpoint Dewpoint Depression Visibility Wind Speed Wind Dir Waves Ship Positions

Crown Jewel

Owner: CJ Holding LLC, New York, NY. More information available from US FCC via Universal Licensing System and Coast Guard Vessel Documentation Center.

Last reported at 2017-Oct-22 12:23 UTC. Time now 2017-Oct-23 08:27 UTC.
Position N 34°33' W 076°54'.

Length 29 m.

Type: Pleasure craft. MMSI: 367647820.

Date/timePositionNaut miles runAvg speedWind from/ knotsBaromVisibWave heightAir tempDewpointWater temp
2017-Oct-22 12:23N 34°33' W 076°54'512.4
2017-Oct-22 12:00N 34°35' W 076°49'612.4
2017-Oct-22 11:30N 34°38' W 076°43'5 9.4
2017-Oct-22 11:00N 34°43' W 076°41'1 1.2
2017-Oct-22 10:29N 34°43' W 076°40'0 0.0
2017-Oct-22 09:59N 34°43' W 076°40'0 0.0
2017-Oct-22 09:29N 34°43' W 076°40'0 0.0
2017-Oct-22 08:59N 34°43' W 076°40'0 0.0
2017-Oct-22 08:29N 34°43' W 076°40'0 0.0
2017-Oct-22 07:53N 34°43' W 076°40'0 0.0
2017-Oct-22 07:29N 34°43' W 076°40'0 0.0
2017-Oct-22 06:59N 34°43' W 076°40'0 0.0
2017-Oct-22 06:29N 34°43' W 076°40'0 0.0
2017-Oct-22 05:59N 34°43' W 076°40'0 0.0
2017-Oct-22 05:29N 34°43' W 076°40'0 0.0
2017-Oct-22 04:59N 34°43' W 076°40'0 0.0
2017-Oct-22 04:29N 34°43' W 076°40'0 0.0
2017-Oct-22 03:59N 34°43' W 076°40'0 0.0
2017-Oct-22 03:26N 34°43' W 076°40'0 0.0
2017-Oct-22 02:59N 34°43' W 076°40'0 0.0
2017-Oct-22 02:29N 34°43' W 076°40'0 0.0
2017-Oct-22 01:59N 34°43' W 076°40'0 0.0
2017-Oct-22 01:29N 34°43' W 076°40'0 0.0
2017-Oct-22 00:59N 34°43' W 076°40'0 0.0
2017-Oct-22 00:29N 34°43' W 076°40'0 0.0
2017-Oct-21 23:59N 34°43' W 076°40'0 0.0
2017-Oct-21 23:29N 34°43' W 076°40'0 0.0
2017-Oct-21 22:59N 34°43' W 076°40'0 0.0
2017-Oct-21 22:29N 34°43' W 076°40'0 0.0
2017-Oct-21 21:59N 34°43' W 076°40'0 0.0
2017-Oct-21 21:29N 34°43' W 076°40'0 0.0
2017-Oct-21 20:59N 34°43' W 076°40'0 0.0
2017-Oct-21 20:23N 34°43' W 076°40'0 0.0
2017-Oct-21 19:59N 34°43' W 076°40'0 0.0
2017-Oct-21 19:29N 34°43' W 076°40'0 0.0
2017-Oct-21 18:59N 34°43' W 076°40'0 0.0
2017-Oct-21 18:29N 34°43' W 076°40'0 0.0
2017-Oct-21 17:59N 34°43' W 076°40'1 2.7
2017-Oct-21 17:30N 34°43' W 076°41'4 7.7
2017-Oct-21 17:00N 34°46' W 076°41'4 7.7
2017-Oct-21 16:30N 34°50' W 076°41'  
2017-Oct-19 12:03N 36°45' W 076°18'0 6.4
2017-Oct-19 12:00N 36°46' W 076°18'1 2.8
2017-Oct-19 11:30N 36°47' W 076°18'326 6.8
2017-Oct-17 11:13N 41°15' W 072°20'2 8.1
2017-Oct-17 10:58N 41°17' W 072°21'0 0.1
2017-Oct-17 10:29N 41°17' W 072°21'0 0.0
2017-Oct-17 09:59N 41°17' W 072°21'0 0.0
2017-Oct-17 09:23N 41°17' W 072°21'0 0.0
2017-Oct-17 08:47N 41°17' W 072°21'0 0.0
2017-Oct-17 08:17N 41°17' W 072°21'0 0.0
2017-Oct-17 07:59N 41°17' W 072°21'0 0.0
2017-Oct-17 07:29N 41°17' W 072°21'0 0.0
2017-Oct-17 06:59N 41°17' W 072°21'0 0.0
2017-Oct-17 06:17N 41°17' W 072°21'0 0.0
2017-Oct-17 05:59N 41°17' W 072°21'0 0.0
2017-Oct-17 05:29N 41°17' W 072°21'0 0.0
2017-Oct-17 04:23N 41°17' W 072°21'0 0.0
2017-Oct-17 03:59N 41°17' W 072°21'0 0.0
2017-Oct-17 03:05N 41°17' W 072°21'0 0.0
2017-Oct-17 02:59N 41°17' W 072°21'0 0.0
2017-Oct-17 02:29N 41°17' W 072°21'0 0.0
2017-Oct-17 01:59N 41°17' W 072°21'0 0.0
2017-Oct-17 01:23N 41°17' W 072°21'0 0.0
2017-Oct-17 00:53N 41°17' W 072°21'0 0.0
2017-Oct-17 00:29N 41°17' W 072°21'0 0.0
2017-Oct-16 23:59N 41°17' W 072°21'0 0.0
2017-Oct-16 23:23N 41°17' W 072°21'0 0.0
2017-Oct-16 22:59N 41°17' W 072°21'0 0.0
2017-Oct-16 22:29N 41°17' W 072°21'0 0.0
2017-Oct-16 19:23N 41°17' W 072°21'0 0.0
2017-Oct-16 18:53N 41°17' W 072°21'0 0.0
2017-Oct-16 16:17N 41°17' W 072°21'0 0.0
2017-Oct-16 15:59N 41°17' W 072°21'0 0.0
2017-Oct-16 15:29N 41°17' W 072°21'0 0.0
2017-Oct-16 14:41N 41°17' W 072°21'0 0.0
2017-Oct-16 13:53N 41°17' W 072°21'0 0.0
2017-Oct-16 13:29N 41°17' W 072°21'0 0.0
2017-Oct-16 12:59N 41°17' W 072°21'0 0.0
2017-Oct-16 12:23N 41°17' W 072°21'0 0.0
2017-Oct-16 11:53N 41°17' W 072°21'0 0.0
2017-Oct-16 11:29N 41°17' W 072°21'0 0.0
2017-Oct-16 10:59N 41°17' W 072°21'0 0.0
2017-Oct-16 10:29N 41°17' W 072°21'0 0.0
2017-Oct-16 09:59N 41°17' W 072°21'0 0.0
2017-Oct-16 09:29N 41°17' W 072°21'0 0.0
2017-Oct-16 01:11N 41°17' W 072°21'0 0.0
2017-Oct-16 00:53N 41°17' W 072°21'0 0.0
2017-Oct-16 00:05N 41°17' W 072°21'0 0.1
2017-Oct-15 23:59N 41°17' W 072°21'0 0.0
2017-Oct-15 23:29N 41°17' W 072°21'0 0.0
2017-Oct-15 22:47N 41°17' W 072°21'0 0.0
2017-Oct-15 21:23N 41°17' W 072°21'0 0.0
2017-Oct-15 20:53N 41°17' W 072°21'0 0.0
2017-Oct-15 19:11N 41°17' W 072°21'0 0.0
2017-Oct-15 16:35N 41°17' W 072°21'0 0.0
2017-Oct-15 16:29N 41°17' W 072°21'0 0.0
2017-Oct-15 15:53N 41°17' W 072°21'0 0.0
2017-Oct-15 15:11N 41°17' W 072°21'0 0.0
2017-Oct-15 14:47N 41°17' W 072°21'0 0.0
2017-Oct-15 13:59N 41°17' W 072°21'0 0.0
2017-Oct-15 13:17N 41°17' W 072°21'0 0.0
2017-Oct-15 12:53N 41°17' W 072°21'0 0.0
2017-Oct-15 12:29N 41°17' W 072°21'0 0.0
2017-Oct-15 11:59N 41°17' W 072°21'0 0.0
2017-Oct-15 11:29N 41°17' W 072°21'0 0.0
2017-Oct-15 10:59N 41°17' W 072°21'0 0.0
2017-Oct-15 10:23N 41°17' W 072°21'0 0.0
2017-Oct-15 09:53N 41°17' W 072°21'0 0.0
2017-Oct-15 09:23N 41°17' W 072°21'0 0.0
2017-Oct-15 08:59N 41°17' W 072°21'0 0.0
2017-Oct-15 08:29N 41°17' W 072°21'0 0.0
2017-Oct-15 07:47N 41°17' W 072°21'0 0.0
2017-Oct-15 06:47N 41°17' W 072°21'0 0.0
2017-Oct-15 06:11N 41°17' W 072°21'0 0.0
2017-Oct-15 04:59N 41°17' W 072°21'0 0.0
2017-Oct-15 04:29N 41°17' W 072°21'0 0.0
2017-Oct-15 03:41N 41°17' W 072°21'0 0.0
2017-Oct-15 03:29N 41°17' W 072°21'0 0.0
2017-Oct-15 02:53N 41°17' W 072°21'0 0.0
2017-Oct-15 01:47N 41°17' W 072°21'0 0.0
2017-Oct-15 01:23N 41°17' W 072°21'0 0.0
2017-Oct-15 00:47N 41°17' W 072°21'0 0.0
2017-Oct-15 00:29N 41°17' W 072°21'0 0.0
2017-Oct-14 23:53N 41°17' W 072°21'0 0.0
2017-Oct-14 23:23N 41°17' W 072°21'0 0.0
2017-Oct-14 22:59N 41°17' W 072°21'0 0.0
2017-Oct-14 22:11N 41°17' W 072°21'0 0.0
2017-Oct-14 21:53N 41°17' W 072°21'0 0.0
2017-Oct-14 21:11N 41°17' W 072°21'0 0.0
2017-Oct-14 20:53N 41°17' W 072°21'0 0.0
2017-Oct-14 20:23N 41°17' W 072°21'0 0.0
2017-Oct-14 19:29N 41°17' W 072°21'0 0.0
2017-Oct-14 17:47N 41°17' W 072°21'0 0.0
2017-Oct-14 17:17N 41°17' W 072°21'0 0.0
2017-Oct-14 16:53N 41°17' W 072°21'0 0.0
2017-Oct-14 16:17N 41°17' W 072°21'0 0.0
2017-Oct-14 15:53N 41°17' W 072°21'0 0.0
2017-Oct-14 15:29N 41°17' W 072°21'0 0.0
2017-Oct-14 14:59N 41°17' W 072°21'0 0.0
2017-Oct-14 14:29N 41°17' W 072°21'0 0.0
2017-Oct-14 13:59N 41°17' W 072°21'0 0.0
2017-Oct-14 12:23N 41°17' W 072°21'0 0.0
2017-Oct-14 11:47N 41°17' W 072°21'0 0.0
2017-Oct-14 08:53N 41°17' W 072°21'0 0.0
2017-Oct-14 07:35N 41°17' W 072°21'0 0.0
2017-Oct-14 07:17N 41°17' W 072°21'0 0.0
2017-Oct-14 06:47N 41°17' W 072°21'0 0.0
2017-Oct-14 06:29N 41°17' W 072°21'0 0.0
2017-Oct-14 05:59N 41°17' W 072°21'0 0.0
2017-Oct-14 05:29N 41°17' W 072°21'0 0.0
2017-Oct-14 04:59N 41°17' W 072°21'0 0.0
2017-Oct-14 04:23N 41°17' W 072°21'0 0.0
2017-Oct-14 03:47N 41°17' W 072°21'0 0.0
2017-Oct-14 03:11N 41°17' W 072°21'0 0.0
2017-Oct-14 02:59N 41°17' W 072°21'0 0.0
2017-Oct-14 02:23N 41°17' W 072°21'0 0.0
2017-Oct-13 23:11N 41°17' W 072°21'0 0.0
2017-Oct-13 22:59N 41°17' W 072°21'0 0.0
2017-Oct-13 20:59N 41°17' W 072°21'0 0.0
2017-Oct-13 19:59N 41°17' W 072°21'0 0.0
2017-Oct-13 19:11N 41°17' W 072°21'0 0.0
2017-Oct-13 18:53N 41°17' W 072°21'0 0.0
2017-Oct-13 18:23N 41°17' W 072°21'0 0.0
2017-Oct-13 17:59N 41°17' W 072°21'0 0.0
2017-Oct-13 17:23N 41°17' W 072°21'0 0.0
2017-Oct-13 16:59N 41°17' W 072°21'0 0.0
2017-Oct-13 16:17N 41°17' W 072°21'0 0.0
2017-Oct-13 15:53N 41°17' W 072°21'0 0.0
2017-Oct-13 15:29N 41°17' W 072°21'0 0.0
2017-Oct-13 14:59N 41°17' W 072°21'0 0.0
2017-Oct-13 14:29N 41°17' W 072°21'0 0.0
2017-Oct-13 12:11N 41°17' W 072°21'0 0.0
2017-Oct-13 11:59N 41°17' W 072°21'0 0.0
2017-Oct-13 11:29N 41°17' W 072°21'0 0.0
2017-Oct-13 10:59N 41°17' W 072°21'0 0.0
2017-Oct-13 10:29N 41°17' W 072°21'0 0.0
2017-Oct-13 09:59N 41°17' W 072°21'0 0.0
2017-Oct-13 09:29N 41°17' W 072°21'0 0.0
2017-Oct-13 08:41N 41°17' W 072°21'0 0.0
2017-Oct-13 08:23N 41°17' W 072°21'0 0.0
2017-Oct-13 07:59N 41°17' W 072°21'0 0.0
2017-Oct-13 07:23N 41°17' W 072°21'0 0.0
2017-Oct-13 06:53N 41°17' W 072°21'0 0.0
2017-Oct-13 06:29N 41°17' W 072°21'0 0.0
2017-Oct-13 05:59N 41°17' W 072°21'0 0.0
2017-Oct-13 05:29N 41°17' W 072°21'0 0.0
2017-Oct-13 04:59N 41°17' W 072°21'0 0.0
2017-Oct-13 04:17N 41°17' W 072°21'0 0.0
2017-Oct-13 03:47N 41°17' W 072°21'0 0.0
2017-Oct-13 02:29N 41°17' W 072°21'0 0.0
2017-Oct-13 01:59N 41°17' W 072°21'0 0.0
2017-Oct-13 01:29N 41°17' W 072°21'0 0.0
2017-Oct-13 00:59N 41°17' W 072°21'0 0.0
2017-Oct-13 00:29N 41°17' W 072°21'0 0.0
2017-Oct-12 23:59N 41°17' W 072°21'0 0.0
2017-Oct-12 23:23N 41°17' W 072°21'0 0.0
2017-Oct-12 17:17N 41°17' W 072°21'0 0.0
2017-Oct-12 16:47N 41°17' W 072°21'0 0.0
2017-Oct-12 16:29N 41°17' W 072°21'0 0.0
2017-Oct-12 15:47N 41°17' W 072°21'0 0.0
2017-Oct-12 13:26N 41°17' W 072°21'0 0.0
2017-Oct-12 12:56N 41°17' W 072°21'  
Track history (hours):
 
Tides and Currents Weather Stations Pressure Air Temp Water Temp Dewpoint Dewpoint Depression Visibility Wind Speed Wind Dir Waves Ship Positions

Crown Jewel

Owner: CJ Holding LLC, New York, NY. More information available from US FCC via Universal Licensing System and Coast Guard Vessel Documentation Center.

Last reported at 2017-Oct-22 12:23 UTC. Time now 2017-Oct-23 08:27 UTC.
Position N 34°33' W 076°54'.

Length 29 m.

Type: Pleasure craft. MMSI: 367647820.

Date/timePositionNaut miles runAvg speedWind from/ knotsBaromVisibWave heightAir tempDewpointWater temp
2017-Oct-22 12:23N 34°33' W 076°54'512.4
2017-Oct-22 12:00N 34°35' W 076°49'612.4
2017-Oct-22 11:30N 34°38' W 076°43'5 9.4
2017-Oct-22 11:00N 34°43' W 076°41'1 1.2
2017-Oct-22 10:29N 34°43' W 076°40'0 0.0
2017-Oct-22 09:59N 34°43' W 076°40'0 0.0
2017-Oct-22 09:29N 34°43' W 076°40'0 0.0
2017-Oct-22 08:59N 34°43' W 076°40'0 0.0
2017-Oct-22 08:29N 34°43' W 076°40'0 0.0
2017-Oct-22 07:53N 34°43' W 076°40'0 0.0
2017-Oct-22 07:29N 34°43' W 076°40'0 0.0
2017-Oct-22 06:59N 34°43' W 076°40'0 0.0
2017-Oct-22 06:29N 34°43' W 076°40'0 0.0
2017-Oct-22 05:59N 34°43' W 076°40'0 0.0
2017-Oct-22 05:29N 34°43' W 076°40'0 0.0
2017-Oct-22 04:59N 34°43' W 076°40'0 0.0
2017-Oct-22 04:29N 34°43' W 076°40'0 0.0
2017-Oct-22 03:59N 34°43' W 076°40'0 0.0
2017-Oct-22 03:26N 34°43' W 076°40'0 0.0
2017-Oct-22 02:59N 34°43' W 076°40'0 0.0
2017-Oct-22 02:29N 34°43' W 076°40'0 0.0
2017-Oct-22 01:59N 34°43' W 076°40'0 0.0
2017-Oct-22 01:29N 34°43' W 076°40'0 0.0
2017-Oct-22 00:59N 34°43' W 076°40'0 0.0
2017-Oct-22 00:29N 34°43' W 076°40'0 0.0
2017-Oct-21 23:59N 34°43' W 076°40'0 0.0
2017-Oct-21 23:29N 34°43' W 076°40'0 0.0
2017-Oct-21 22:59N 34°43' W 076°40'0 0.0
2017-Oct-21 22:29N 34°43' W 076°40'0 0.0
2017-Oct-21 21:59N 34°43' W 076°40'0 0.0
2017-Oct-21 21:29N 34°43' W 076°40'0 0.0
2017-Oct-21 20:59N 34°43' W 076°40'0 0.0
2017-Oct-21 20:23N 34°43' W 076°40'0 0.0
2017-Oct-21 19:59N 34°43' W 076°40'0 0.0
2017-Oct-21 19:29N 34°43' W 076°40'0 0.0
2017-Oct-21 18:59N 34°43' W 076°40'0 0.0
2017-Oct-21 18:29N 34°43' W 076°40'0 0.0
2017-Oct-21 17:59N 34°43' W 076°40'1 2.7
2017-Oct-21 17:30N 34°43' W 076°41'4 7.7
2017-Oct-21 17:00N 34°46' W 076°41'4 7.7
2017-Oct-21 16:30N 34°50' W 076°41'  
2017-Oct-19 12:03N 36°45' W 076°18'0 6.4
2017-Oct-19 12:00N 36°46' W 076°18'1 2.8
2017-Oct-19 11:30N 36°47' W 076°18'326 6.8
2017-Oct-17 11:13N 41°15' W 072°20'2 8.1
2017-Oct-17 10:58N 41°17' W 072°21'0 0.1
2017-Oct-17 10:29N 41°17' W 072°21'0 0.0
2017-Oct-17 09:59N 41°17' W 072°21'0 0.0
2017-Oct-17 09:23N 41°17' W 072°21'0 0.0
2017-Oct-17 08:47N 41°17' W 072°21'0 0.0
2017-Oct-17 08:17N 41°17' W 072°21'0 0.0
2017-Oct-17 07:59N 41°17' W 072°21'0 0.0
2017-Oct-17 07:29N 41°17' W 072°21'0 0.0
2017-Oct-17 06:59N 41°17' W 072°21'0 0.0
2017-Oct-17 06:17N 41°17' W 072°21'0 0.0
2017-Oct-17 05:59N 41°17' W 072°21'0 0.0
2017-Oct-17 05:29N 41°17' W 072°21'0 0.0
2017-Oct-17 04:23N 41°17' W 072°21'0 0.0
2017-Oct-17 03:59N 41°17' W 072°21'0 0.0
2017-Oct-17 03:05N 41°17' W 072°21'0 0.0
2017-Oct-17 02:59N 41°17' W 072°21'0 0.0
2017-Oct-17 02:29N 41°17' W 072°21'0 0.0
2017-Oct-17 01:59N 41°17' W 072°21'0 0.0
2017-Oct-17 01:23N 41°17' W 072°21'0 0.0
2017-Oct-17 00:53N 41°17' W 072°21'0 0.0
2017-Oct-17 00:29N 41°17' W 072°21'0 0.0
2017-Oct-16 23:59N 41°17' W 072°21'0 0.0
2017-Oct-16 23:23N 41°17' W 072°21'0 0.0
2017-Oct-16 22:59N 41°17' W 072°21'0 0.0
2017-Oct-16 22:29N 41°17' W 072°21'0 0.0
2017-Oct-16 19:23N 41°17' W 072°21'0 0.0
2017-Oct-16 18:53N 41°17' W 072°21'0 0.0
2017-Oct-16 16:17N 41°17' W 072°21'0 0.0
2017-Oct-16 15:59N 41°17' W 072°21'0 0.0
2017-Oct-16 15:29N 41°17' W 072°21'0 0.0
2017-Oct-16 14:41N 41°17' W 072°21'0 0.0
2017-Oct-16 13:53N 41°17' W 072°21'0 0.0
2017-Oct-16 13:29N 41°17' W 072°21'0 0.0
2017-Oct-16 12:59N 41°17' W 072°21'0 0.0
2017-Oct-16 12:23N 41°17' W 072°21'0 0.0
2017-Oct-16 11:53N 41°17' W 072°21'0 0.0
2017-Oct-16 11:29N 41°17' W 072°21'0 0.0
2017-Oct-16 10:59N 41°17' W 072°21'0 0.0
2017-Oct-16 10:29N 41°17' W 072°21'0 0.0
2017-Oct-16 09:59N 41°17' W 072°21'0 0.0
2017-Oct-16 09:29N 41°17' W 072°21'0 0.0
2017-Oct-16 01:11N 41°17' W 072°21'0 0.0
2017-Oct-16 00:53N 41°17' W 072°21'0 0.0
2017-Oct-16 00:05N 41°17' W 072°21'0 0.1
2017-Oct-15 23:59N 41°17' W 072°21'0 0.0
2017-Oct-15 23:29N 41°17' W 072°21'0 0.0
2017-Oct-15 22:47N 41°17' W 072°21'0 0.0
2017-Oct-15 21:23N 41°17' W 072°21'0 0.0
2017-Oct-15 20:53N 41°17' W 072°21'0 0.0
2017-Oct-15 19:11N 41°17' W 072°21'0 0.0
2017-Oct-15 16:35N 41°17' W 072°21'0 0.0
2017-Oct-15 16:29N 41°17' W 072°21'0 0.0
2017-Oct-15 15:53N 41°17' W 072°21'0 0.0
2017-Oct-15 15:11N 41°17' W 072°21'0 0.0
2017-Oct-15 14:47N 41°17' W 072°21'0 0.0
2017-Oct-15 13:59N 41°17' W 072°21'0 0.0
2017-Oct-15 13:17N 41°17' W 072°21'0 0.0
2017-Oct-15 12:53N 41°17' W 072°21'0 0.0
2017-Oct-15 12:29N 41°17' W 072°21'0 0.0
2017-Oct-15 11:59N 41°17' W 072°21'0 0.0
2017-Oct-15 11:29N 41°17' W 072°21'0 0.0
2017-Oct-15 10:59N 41°17' W 072°21'0 0.0
2017-Oct-15 10:23N 41°17' W 072°21'0 0.0
2017-Oct-15 09:53N 41°17' W 072°21'0 0.0
2017-Oct-15 09:23N 41°17' W 072°21'0 0.0
2017-Oct-15 08:59N 41°17' W 072°21'0 0.0
2017-Oct-15 08:29N 41°17' W 072°21'0 0.0
2017-Oct-15 07:47N 41°17' W 072°21'0 0.0
2017-Oct-15 06:47N 41°17' W 072°21'0 0.0
2017-Oct-15 06:11N 41°17' W 072°21'0 0.0
2017-Oct-15 04:59N 41°17' W 072°21'0 0.0
2017-Oct-15 04:29N 41°17' W 072°21'0 0.0
2017-Oct-15 03:41N 41°17' W 072°21'0 0.0
2017-Oct-15 03:29N 41°17' W 072°21'0 0.0
2017-Oct-15 02:53N 41°17' W 072°21'0 0.0
2017-Oct-15 01:47N 41°17' W 072°21'0 0.0
2017-Oct-15 01:23N 41°17' W 072°21'0 0.0
2017-Oct-15 00:47N 41°17' W 072°21'0 0.0
2017-Oct-15 00:29N 41°17' W 072°21'0 0.0
2017-Oct-14 23:53N 41°17' W 072°21'0 0.0
2017-Oct-14 23:23N 41°17' W 072°21'0 0.0
2017-Oct-14 22:59N 41°17' W 072°21'0 0.0
2017-Oct-14 22:11N 41°17' W 072°21'0 0.0
2017-Oct-14 21:53N 41°17' W 072°21'0 0.0
2017-Oct-14 21:11N 41°17' W 072°21'0 0.0
2017-Oct-14 20:53N 41°17' W 072°21'0 0.0
2017-Oct-14 20:23N 41°17' W 072°21'0 0.0
2017-Oct-14 19:29N 41°17' W 072°21'0 0.0
2017-Oct-14 17:47N 41°17' W 072°21'0 0.0
2017-Oct-14 17:17N 41°17' W 072°21'0 0.0
2017-Oct-14 16:53N 41°17' W 072°21'0 0.0
2017-Oct-14 16:17N 41°17' W 072°21'0 0.0
2017-Oct-14 15:53N 41°17' W 072°21'0 0.0
2017-Oct-14 15:29N 41°17' W 072°21'0 0.0
2017-Oct-14 14:59N 41°17' W 072°21'0 0.0
2017-Oct-14 14:29N 41°17' W 072°21'0 0.0
2017-Oct-14 13:59N 41°17' W 072°21'0 0.0
2017-Oct-14 12:23N 41°17' W 072°21'0 0.0
2017-Oct-14 11:47N 41°17' W 072°21'0 0.0
2017-Oct-14 08:53N 41°17' W 072°21'0 0.0
2017-Oct-14 07:35N 41°17' W 072°21'0 0.0
2017-Oct-14 07:17N 41°17' W 072°21'0 0.0
2017-Oct-14 06:47N 41°17' W 072°21'0 0.0
2017-Oct-14 06:29N 41°17' W 072°21'0 0.0
2017-Oct-14 05:59N 41°17' W 072°21'0 0.0
2017-Oct-14 05:29N 41°17' W 072°21'0 0.0
2017-Oct-14 04:59N 41°17' W 072°21'0 0.0
2017-Oct-14 04:23N 41°17' W 072°21'0 0.0
2017-Oct-14 03:47N 41°17' W 072°21'0 0.0
2017-Oct-14 03:11N 41°17' W 072°21'0 0.0
2017-Oct-14 02:59N 41°17' W 072°21'0 0.0
2017-Oct-14 02:23N 41°17' W 072°21'0 0.0
2017-Oct-13 23:11N 41°17' W 072°21'0 0.0
2017-Oct-13 22:59N 41°17' W 072°21'0 0.0
2017-Oct-13 20:59N 41°17' W 072°21'0 0.0
2017-Oct-13 19:59N 41°17' W 072°21'0 0.0
2017-Oct-13 19:11N 41°17' W 072°21'0 0.0
2017-Oct-13 18:53N 41°17' W 072°21'0 0.0
2017-Oct-13 18:23N 41°17' W 072°21'0 0.0
2017-Oct-13 17:59N 41°17' W 072°21'0 0.0
2017-Oct-13 17:23N 41°17' W 072°21'0 0.0
2017-Oct-13 16:59N 41°17' W 072°21'0 0.0
2017-Oct-13 16:17N 41°17' W 072°21'0 0.0
2017-Oct-13 15:53N 41°17' W 072°21'0 0.0
2017-Oct-13 15:29N 41°17' W 072°21'0 0.0
2017-Oct-13 14:59N 41°17' W 072°21'0 0.0
2017-Oct-13 14:29N 41°17' W 072°21'0 0.0
2017-Oct-13 12:11N 41°17' W 072°21'0 0.0
2017-Oct-13 11:59N 41°17' W 072°21'0 0.0
2017-Oct-13 11:29N 41°17' W 072°21'0 0.0
2017-Oct-13 10:59N 41°17' W 072°21'0 0.0
2017-Oct-13 10:29N 41°17' W 072°21'0 0.0
2017-Oct-13 09:59N 41°17' W 072°21'0 0.0
2017-Oct-13 09:29N 41°17' W 072°21'0 0.0
2017-Oct-13 08:41N 41°17' W 072°21'0 0.0
2017-Oct-13 08:23N 41°17' W 072°21'0 0.0
2017-Oct-13 07:59N 41°17' W 072°21'0 0.0
2017-Oct-13 07:23N 41°17' W 072°21'0 0.0
2017-Oct-13 06:53N 41°17' W 072°21'0 0.0
2017-Oct-13 06:29N 41°17' W 072°21'0 0.0
2017-Oct-13 05:59N 41°17' W 072°21'0 0.0
2017-Oct-13 05:29N 41°17' W 072°21'0 0.0
2017-Oct-13 04:59N 41°17' W 072°21'0 0.0
2017-Oct-13 04:17N 41°17' W 072°21'0 0.0
2017-Oct-13 03:47N 41°17' W 072°21'0 0.0
2017-Oct-13 02:29N 41°17' W 072°21'0 0.0
2017-Oct-13 01:59N 41°17' W 072°21'0 0.0
2017-Oct-13 01:29N 41°17' W 072°21'0 0.0
2017-Oct-13 00:59N 41°17' W 072°21'0 0.0
2017-Oct-13 00:29N 41°17' W 072°21'0 0.0
2017-Oct-12 23:59N 41°17' W 072°21'0 0.0
2017-Oct-12 23:23N 41°17' W 072°21'0 0.0
2017-Oct-12 17:17N 41°17' W 072°21'0 0.0
2017-Oct-12 16:47N 41°17' W 072°21'0 0.0
2017-Oct-12 16:29N 41°17' W 072°21'0 0.0
2017-Oct-12 15:47N 41°17' W 072°21'0 0.0
2017-Oct-12 13:26N 41°17' W 072°21'0 0.0
2017-Oct-12 12:56N 41°17' W 072°21'  

Dump ship's entire track history